createdAt,value
2019-06-08T00:02:20.674Z,15.13
2019-06-08T00:04:49.147Z,15.11
2019-06-08T00:07:18.819Z,15.13
2019-06-08T00:09:47.444Z,15.14
2019-06-08T00:12:16.868Z,15.09
2019-06-08T00:14:45.247Z,15.10
2019-06-08T00:17:27.399Z,15.10
2019-06-08T00:19:43.634Z,15.09
2019-06-08T00:22:12.043Z,15.09
2019-06-08T00:24:40.416Z,15.10
2019-06-08T00:27:08.700Z,15.07
2019-06-08T00:29:37.557Z,15.04
2019-06-08T00:32:05.966Z,15.02
2019-06-08T00:34:35.943Z,15.03
2019-06-08T00:37:04.299Z,15.02
2019-06-08T00:39:32.753Z,15.01
2019-06-08T00:42:01.081Z,15.01
2019-06-08T00:44:29.464Z,15.01
2019-06-08T00:46:57.847Z,15.03
2019-06-08T00:49:26.312Z,15.04
2019-06-08T00:51:54.733Z,15.03
2019-06-08T00:54:23.515Z,15.02
2019-06-08T00:56:51.858Z,15.01
2019-06-08T00:59:20.176Z,14.96
2019-06-08T01:01:48.569Z,14.93
2019-06-08T01:04:16.906Z,14.91
2019-06-08T01:06:45.212Z,14.91
2019-06-08T01:09:13.538Z,14.92
2019-06-08T01:11:41.844Z,14.97
2019-06-08T01:14:10.363Z,14.98
2019-06-08T01:16:38.652Z,15.03
2019-06-08T01:19:06.973Z,15.05
2019-06-08T01:21:35.296Z,15.11
2019-06-08T01:24:03.560Z,15.15
2019-06-08T01:26:32.763Z,15.16
2019-06-08T01:29:01.055Z,15.22
2019-06-08T01:31:30.514Z,15.27
2019-06-08T01:33:59.089Z,15.31
2019-06-08T01:36:29.169Z,15.33
2019-06-08T01:38:57.525Z,15.29
2019-06-08T01:41:25.873Z,15.32
2019-06-08T01:43:54.173Z,15.29
2019-06-08T01:46:23.767Z,15.27
2019-06-08T01:48:52.260Z,15.28
2019-06-08T01:51:20.548Z,15.25
2019-06-08T01:53:48.887Z,15.26
2019-06-08T01:56:17.298Z,15.24
2019-06-08T01:58:45.584Z,15.23
2019-06-08T02:01:14.017Z,15.29
2019-06-08T02:03:42.324Z,15.33
2019-06-08T02:06:10.654Z,15.32
2019-06-08T02:08:39.163Z,15.35
2019-06-08T02:11:07.539Z,15.39
2019-06-08T02:13:35.847Z,15.43
2019-06-08T02:16:04.207Z,15.43
2019-06-08T02:18:43.826Z,15.46
2019-06-08T02:21:02.693Z,15.48
2019-06-08T02:23:31.144Z,15.49
2019-06-08T02:25:59.585Z,15.50
2019-06-08T02:28:27.881Z,15.51
2019-06-08T02:30:56.728Z,15.51
2019-06-08T02:33:25.156Z,15.51
2019-06-08T02:35:53.553Z,15.52
2019-06-08T02:38:21.847Z,15.53
2019-06-08T02:40:50.167Z,15.54
2019-06-08T02:43:18.467Z,15.56
2019-06-08T02:45:46.776Z,15.56
2019-06-08T02:48:15.106Z,15.60
2019-06-08T02:50:49.076Z,15.60
2019-06-08T02:53:18.463Z,15.57
2019-06-08T02:55:48.299Z,15.59
2019-06-08T02:58:17.448Z,15.60
2019-06-08T03:00:46.958Z,15.61
2019-06-08T03:03:15.732Z,15.61
2019-06-08T03:05:45.389Z,15.62
2019-06-08T03:08:13.729Z,15.63
2019-06-08T03:10:42.476Z,15.62
2019-06-08T03:13:11.667Z,15.62
2019-06-08T03:15:41.515Z,15.60
2019-06-08T03:18:09.996Z,15.58
2019-06-08T03:20:40.143Z,15.57
2019-06-08T03:23:08.920Z,15.59
2019-06-08T03:25:47.337Z,15.61
2019-06-08T03:28:07.301Z,15.64
2019-06-08T03:30:42.215Z,15.66
2019-06-08T03:33:05.768Z,15.64
2019-06-08T03:35:36.042Z,15.63
2019-06-08T03:38:04.475Z,15.63
2019-06-08T03:40:33.916Z,15.61
2019-06-08T03:43:02.532Z,15.61
2019-06-08T03:45:30.906Z,15.62
2019-06-08T03:47:59.200Z,15.60
2019-06-08T03:50:27.523Z,15.59
2019-06-08T03:52:55.992Z,15.59
2019-06-08T03:55:24.286Z,15.58
2019-06-08T03:57:52.624Z,15.55
2019-06-08T04:00:20.935Z,15.56
2019-06-08T04:02:50.287Z,15.58
2019-06-08T04:05:18.663Z,15.57
2019-06-08T04:07:47.886Z,15.58
2019-06-08T04:10:16.210Z,15.57
2019-06-08T04:12:46.152Z,15.57
2019-06-08T04:15:15.418Z,15.54
2019-06-08T04:17:44.124Z,15.56
2019-06-08T04:20:12.819Z,15.55
2019-06-08T04:22:44.725Z,15.55
2019-06-08T04:25:13.648Z,15.55
2019-06-08T04:27:42.263Z,15.54
2019-06-08T04:30:11.006Z,15.56
2019-06-08T04:32:40.707Z,15.51
2019-06-08T04:35:09.575Z,15.54
2019-06-08T04:37:38.424Z,15.59
2019-06-08T04:40:08.168Z,15.55
2019-06-08T04:42:36.471Z,15.55
2019-06-08T04:45:10.717Z,15.55
2019-06-08T04:47:40.708Z,15.57
2019-06-08T04:50:21.758Z,15.55
2019-06-08T04:52:40.814Z,15.54
2019-06-08T04:55:09.175Z,15.54
2019-06-08T04:57:39.415Z,15.52
2019-06-08T05:00:13.097Z,15.51
2019-06-08T05:02:39.792Z,15.47
2019-06-08T05:05:08.981Z,15.45
2019-06-08T05:07:39.003Z,15.43
2019-06-08T05:10:08.781Z,15.45
2019-06-08T05:12:37.084Z,15.44
2019-06-08T05:15:08.613Z,15.42
2019-06-08T05:17:37.035Z,15.36
2019-06-08T05:20:08.961Z,15.36
2019-06-08T05:22:37.323Z,15.36
2019-06-08T05:25:08.825Z,15.36
2019-06-08T05:27:37.110Z,15.36
2019-06-08T05:30:08.691Z,15.31
2019-06-08T05:32:37.242Z,15.29
2019-06-08T05:35:06.457Z,15.25
2019-06-08T05:37:34.815Z,15.22
2019-06-08T05:40:03.567Z,15.16
2019-06-08T05:42:31.930Z,15.15
2019-06-08T05:45:00.337Z,15.14
2019-06-08T05:47:28.793Z,15.12
2019-06-08T05:49:57.185Z,15.11
2019-06-08T05:52:25.595Z,15.19
2019-06-08T05:54:53.873Z,15.19
2019-06-08T05:57:22.211Z,15.23
2019-06-08T05:59:50.554Z,15.28
2019-06-08T06:02:18.882Z,15.33
2019-06-08T06:04:51.587Z,15.35
2019-06-08T06:07:17.383Z,15.40
2019-06-08T06:09:46.993Z,15.44
2019-06-08T06:12:15.442Z,15.48
2019-06-08T06:14:44.976Z,15.44
2019-06-08T06:17:13.482Z,15.45
2019-06-08T06:19:42.915Z,15.45
2019-06-08T06:22:11.445Z,15.38
2019-06-08T06:24:41.621Z,15.34
2019-06-08T06:27:09.933Z,15.30
2019-06-08T06:29:38.346Z,15.32
2019-06-08T06:32:06.659Z,15.35
2019-06-08T06:34:35.093Z,15.37
2019-06-08T06:37:03.399Z,15.33
2019-06-08T06:39:31.909Z,15.33
2019-06-08T06:42:00.213Z,15.35
2019-06-08T06:44:28.723Z,15.37
2019-06-08T06:46:57.168Z,15.38
2019-06-08T06:49:25.480Z,15.40
2019-06-08T06:51:53.761Z,15.39
2019-06-08T06:54:22.148Z,15.44
2019-06-08T06:56:51.783Z,15.38
2019-06-08T06:59:20.204Z,15.32
2019-06-08T07:01:52.645Z,15.34
2019-06-08T07:04:18.572Z,15.35
2019-06-08T07:06:48.033Z,15.29
2019-06-08T07:09:16.605Z,15.28
2019-06-08T07:11:44.884Z,15.27
2019-06-08T07:14:13.187Z,15.19
2019-06-08T07:16:41.486Z,15.23
2019-06-08T07:19:09.802Z,15.22
2019-06-08T07:21:41.823Z,15.28
2019-06-08T07:24:08.306Z,15.35
2019-06-08T07:26:36.733Z,15.28
2019-06-08T07:29:05.072Z,15.29
2019-06-08T07:31:33.522Z,15.24
2019-06-08T07:34:01.900Z,15.14
2019-06-08T07:36:30.211Z,15.00
2019-06-08T07:38:59.663Z,14.97
2019-06-08T07:41:28.193Z,14.96
2019-06-08T07:43:56.682Z,14.96
2019-06-08T07:46:25.178Z,15.04
2019-06-08T07:48:54.428Z,15.19
2019-06-08T07:51:22.829Z,15.20
2019-06-08T07:53:51.526Z,15.28
2019-06-08T07:56:19.910Z,15.32
2019-06-08T07:58:51.452Z,15.32
2019-06-08T08:01:34.968Z,15.31
2019-06-08T08:03:49.962Z,15.23
2019-06-08T08:06:18.347Z,15.13
2019-06-08T08:08:46.814Z,15.04
2019-06-08T08:11:15.273Z,15.04
2019-06-08T08:13:43.686Z,15.05
2019-06-08T08:16:11.964Z,15.10
2019-06-08T08:18:40.407Z,15.14
2019-06-08T08:21:21.189Z,15.14
2019-06-08T08:23:38.806Z,15.05
2019-06-08T08:26:07.082Z,15.01
2019-06-08T08:28:37.513Z,14.97
2019-06-08T08:31:07.773Z,15.00
2019-06-08T08:33:37.863Z,15.00
2019-06-08T08:36:07.274Z,15.03
2019-06-08T08:38:38.060Z,15.06
2019-06-08T08:41:10.045Z,15.06
2019-06-08T08:43:37.752Z,15.10
2019-06-08T08:46:07.663Z,15.08
2019-06-08T08:48:37.741Z,15.02
2019-06-08T08:51:08.383Z,14.98
2019-06-08T08:53:37.456Z,14.96
2019-06-08T08:56:07.316Z,14.83
2019-06-08T08:58:37.957Z,14.76
2019-06-08T09:01:08.079Z,14.78
2019-06-08T09:03:35.923Z,14.74
2019-06-08T09:06:04.628Z,14.67
2019-06-08T09:08:33.190Z,14.72
2019-06-08T09:11:03.554Z,14.75
2019-06-08T09:13:31.518Z,14.74
2019-06-08T09:16:02.326Z,14.80
2019-06-08T09:18:29.945Z,14.91
2019-06-08T09:21:00.286Z,14.96
2019-06-08T09:23:28.364Z,14.88
2019-06-08T09:26:03.947Z,14.89
2019-06-08T09:28:28.541Z,14.86
2019-06-08T09:31:00.303Z,14.90
2019-06-08T09:33:28.772Z,14.98
2019-06-08T09:35:59.956Z,14.99
2019-06-08T09:38:28.700Z,14.94
2019-06-08T09:40:59.847Z,14.97
2019-06-08T09:43:28.925Z,14.93
2019-06-08T09:46:00.521Z,15.00
2019-06-08T09:48:28.837Z,15.01
2019-06-08T09:50:59.854Z,15.01
2019-06-08T09:53:36.605Z,15.01
2019-06-08T09:56:01.349Z,14.94
2019-06-08T09:58:29.067Z,14.95
2019-06-08T10:01:01.997Z,14.89
2019-06-08T10:03:27.768Z,14.86
2019-06-08T10:06:01.506Z,14.83
2019-06-08T10:08:28.324Z,14.81
2019-06-08T10:10:59.463Z,14.84
2019-06-08T10:13:28.131Z,14.89
2019-06-08T10:16:00.057Z,14.93
2019-06-08T10:18:28.538Z,14.97
2019-06-08T10:21:00.620Z,15.01
2019-06-08T10:23:34.174Z,15.04
2019-06-08T10:26:01.309Z,15.07
2019-06-08T10:28:29.078Z,15.08
2019-06-08T10:30:59.680Z,15.06
2019-06-08T10:33:28.165Z,15.06
2019-06-08T10:35:59.139Z,15.08
2019-06-08T10:38:28.879Z,15.07
2019-06-08T10:41:14.785Z,15.08
2019-06-08T10:43:33.349Z,15.13
2019-06-08T10:46:08.461Z,15.15
2019-06-08T10:48:31.797Z,15.23
2019-06-08T10:51:03.409Z,15.25
2019-06-08T10:53:44.978Z,15.23
2019-06-08T10:56:01.712Z,15.22
2019-06-08T10:58:30.189Z,15.26
2019-06-08T11:01:02.158Z,15.25
2019-06-08T11:03:30.691Z,15.33
2019-06-08T11:06:00.726Z,15.38
2019-06-08T11:08:28.673Z,15.42
2019-06-08T11:10:57.956Z,15.44
2019-06-08T11:13:28.381Z,15.49
2019-06-08T11:15:58.635Z,15.52
2019-06-08T11:18:28.683Z,15.61
2019-06-08T11:20:58.444Z,15.89
2019-06-08T11:23:28.785Z,16.15
2019-06-08T11:25:59.476Z,16.35
2019-06-08T11:28:28.315Z,16.48
2019-06-08T11:30:56.987Z,16.60
2019-06-08T11:33:25.274Z,16.61
2019-06-08T11:35:53.582Z,16.64
2019-06-08T11:38:21.889Z,16.72
2019-06-08T11:40:50.250Z,17.04
2019-06-08T11:43:18.697Z,17.51
2019-06-08T11:45:48.099Z,17.58
2019-06-08T11:48:18.295Z,17.56
2019-06-08T11:50:48.863Z,17.48
2019-06-08T11:53:17.985Z,17.46
2019-06-08T11:55:50.651Z,17.68
2019-06-08T11:58:22.565Z,17.74
2019-06-08T12:01:01.822Z,17.63
2019-06-08T12:03:30.575Z,17.66
2019-06-08T12:05:59.011Z,17.76
2019-06-08T12:08:28.444Z,17.90
2019-06-08T12:11:01.258Z,18.20
2019-06-08T12:13:27.901Z,18.83
2019-06-08T12:15:58.739Z,19.24
2019-06-08T12:18:26.481Z,19.53
2019-06-08T12:20:54.762Z,19.79
2019-06-08T12:23:23.197Z,19.86
2019-06-08T12:25:52.265Z,19.73
2019-06-08T12:28:20.801Z,19.57
2019-06-08T12:30:49.187Z,19.43
2019-06-08T12:33:22.602Z,19.25
2019-06-08T12:35:49.173Z,18.77
2019-06-08T12:38:18.976Z,18.81
2019-06-08T12:40:48.595Z,18.95
2019-06-08T12:43:18.912Z,19.11
2019-06-08T12:45:47.831Z,19.29
2019-06-08T12:48:20.233Z,19.32
2019-06-08T12:50:47.829Z,19.25
2019-06-08T12:53:20.749Z,19.20
2019-06-08T12:55:47.587Z,19.50
2019-06-08T12:58:19.939Z,19.86
2019-06-08T13:00:48.330Z,20.09
2019-06-08T13:03:17.001Z,19.87
2019-06-08T13:05:45.288Z,19.59
2019-06-08T13:08:13.585Z,19.47
2019-06-08T13:10:42.430Z,19.24
2019-06-08T13:13:12.682Z,18.87
2019-06-08T13:15:41.195Z,18.65
2019-06-08T13:18:10.657Z,18.28
2019-06-08T13:20:39.656Z,17.92
2019-06-08T13:23:09.906Z,17.30
2019-06-08T13:25:42.962Z,16.99
2019-06-08T13:28:13.062Z,16.63
2019-06-08T13:30:39.095Z,16.45
2019-06-08T13:33:08.113Z,16.37
2019-06-08T13:35:39.242Z,16.27
2019-06-08T13:38:08.693Z,16.27
2019-06-08T13:40:37.793Z,16.32
2019-06-08T13:43:08.124Z,16.39
2019-06-08T13:45:39.054Z,16.35
2019-06-08T13:48:08.745Z,16.31
2019-06-08T13:50:36.844Z,16.23
2019-06-08T13:53:05.168Z,16.15
2019-06-08T13:55:48.565Z,16.01
2019-06-08T13:58:03.614Z,15.94
2019-06-08T14:00:38.139Z,16.00
2019-06-08T14:03:08.506Z,16.10
2019-06-08T14:05:38.800Z,16.08
2019-06-08T14:08:10.649Z,16.10
2019-06-08T14:10:38.994Z,16.11
2019-06-08T14:13:07.343Z,16.15
2019-06-08T14:15:37.666Z,16.09
2019-06-08T14:18:08.503Z,16.08
2019-06-08T14:20:38.237Z,16.09
2019-06-08T14:23:05.737Z,16.17
2019-06-08T14:25:47.961Z,16.29
2019-06-08T14:28:04.654Z,16.40
2019-06-08T14:30:33.315Z,16.41
2019-06-08T14:33:01.652Z,16.42
2019-06-08T14:35:30.276Z,16.43
2019-06-08T14:37:58.583Z,16.44
2019-06-08T14:40:31.042Z,16.46
2019-06-08T14:42:58.067Z,16.42
2019-06-08T14:45:28.956Z,16.34
2019-06-08T14:47:58.589Z,16.20
2019-06-08T14:50:29.298Z,16.01
2019-06-08T14:52:58.860Z,15.70
2019-06-08T14:55:29.734Z,15.34
2019-06-08T14:57:58.025Z,15.01
2019-06-08T15:00:27.765Z,14.81
2019-06-08T15:02:58.666Z,14.76
2019-06-08T15:05:28.924Z,14.73
2019-06-08T15:08:00.391Z,14.73
2019-06-08T15:10:29.434Z,14.73
2019-06-08T15:12:57.731Z,14.94
2019-06-08T15:15:28.873Z,15.21
2019-06-08T15:17:58.149Z,15.32
2019-06-08T15:20:26.421Z,15.43
2019-06-08T15:22:54.861Z,15.49
2019-06-08T15:25:23.144Z,15.51
2019-06-08T15:27:51.427Z,15.43
2019-06-08T15:30:20.859Z,15.19
2019-06-08T15:32:49.586Z,14.98
2019-06-08T15:35:18.207Z,14.73
2019-06-08T15:37:47.877Z,14.59
2019-06-08T15:40:17.803Z,14.40
2019-06-08T15:42:48.189Z,14.17
2019-06-08T15:45:18.375Z,14.03
2019-06-08T15:47:48.543Z,13.95
2019-06-08T15:50:18.012Z,13.92
2019-06-08T15:52:48.159Z,13.85
2019-06-08T15:55:19.341Z,13.85
2019-06-08T15:57:46.850Z,14.06
2019-06-08T16:00:15.144Z,14.31
2019-06-08T16:02:43.436Z,14.48
2019-06-08T16:05:11.766Z,14.63
2019-06-08T16:07:40.145Z,14.89
2019-06-08T16:10:08.971Z,15.18
2019-06-08T16:12:37.259Z,15.44
2019-06-08T16:15:09.481Z,15.70
2019-06-08T16:17:37.761Z,15.93
2019-06-08T16:20:06.118Z,16.15
2019-06-08T16:22:34.431Z,16.34
2019-06-08T16:25:02.759Z,16.46
2019-06-08T16:27:32.174Z,16.47
2019-06-08T16:30:00.557Z,16.45
2019-06-08T16:32:29.270Z,16.41
2019-06-08T16:34:57.785Z,16.50
2019-06-08T16:37:27.394Z,16.67
2019-06-08T16:39:55.816Z,16.85
2019-06-08T16:42:24.248Z,16.95
2019-06-08T16:44:52.528Z,17.01
2019-06-08T16:47:20.815Z,17.02
2019-06-08T16:49:49.118Z,16.86
2019-06-08T16:52:17.480Z,16.81
2019-06-08T16:54:45.841Z,16.67
2019-06-08T16:57:14.127Z,16.61
2019-06-08T16:59:42.419Z,16.60
2019-06-08T17:02:10.747Z,16.55
2019-06-08T17:04:39.260Z,16.38
2019-06-08T17:07:07.737Z,16.33
2019-06-08T17:09:37.732Z,16.23
2019-06-08T17:12:06.808Z,16.10
2019-06-08T17:14:36.311Z,15.90
2019-06-08T17:17:04.800Z,15.73
2019-06-08T17:19:34.105Z,15.65
2019-06-08T17:22:02.490Z,15.71
2019-06-08T17:24:30.779Z,15.86
2019-06-08T17:26:59.111Z,16.00
2019-06-08T17:29:27.410Z,16.11
2019-06-08T17:31:55.690Z,16.22
2019-06-08T17:34:24.100Z,16.30
2019-06-08T17:36:52.384Z,16.32
2019-06-08T17:39:20.697Z,16.39
2019-06-08T17:41:48.979Z,16.43
2019-06-08T17:44:17.298Z,16.46
2019-06-08T17:46:45.724Z,16.56
2019-06-08T17:49:14.036Z,16.70
2019-06-08T17:51:44.376Z,16.83
2019-06-08T17:54:12.431Z,16.98
2019-06-08T17:56:41.277Z,17.14
2019-06-08T17:59:09.617Z,17.26
2019-06-08T18:01:38.018Z,17.33
2019-06-08T18:04:08.084Z,17.42
2019-06-08T18:06:39.702Z,17.41
2019-06-08T18:09:07.887Z,17.48
2019-06-08T18:11:38.240Z,17.52
2019-06-08T18:14:07.447Z,17.53
2019-06-08T18:16:38.969Z,17.50
2019-06-08T18:19:08.117Z,17.36
2019-06-08T18:24:12.305Z,17.20
2019-06-08T18:26:42.134Z,17.06
2019-06-08T18:29:10.936Z,16.91
2019-06-08T18:31:40.543Z,16.81
2019-06-08T18:34:09.383Z,16.71
2019-06-08T18:36:40.366Z,16.56
2019-06-08T18:39:07.679Z,16.48
2019-06-08T18:41:39.024Z,16.34
2019-06-08T18:44:08.433Z,16.24
2019-06-08T18:46:37.965Z,16.15
2019-06-08T18:49:08.124Z,16.04
2019-06-08T18:51:38.156Z,16.00
2019-06-08T18:54:13.905Z,15.97
2019-06-08T18:56:39.996Z,15.90
2019-06-08T18:59:07.725Z,15.89
2019-06-08T19:01:39.099Z,15.88
2019-06-08T19:04:07.662Z,15.89
2019-06-08T19:06:38.732Z,15.84
2019-06-08T19:09:07.634Z,15.79
2019-06-08T19:11:37.670Z,15.78
2019-06-08T19:14:07.199Z,15.75
2019-06-08T19:16:37.911Z,15.76
2019-06-08T19:19:07.428Z,15.69
2019-06-08T19:21:37.522Z,15.66
2019-06-08T19:24:09.631Z,15.63
2019-06-08T19:26:39.418Z,15.59
2019-06-08T19:29:07.695Z,15.52
2019-06-08T19:31:38.618Z,15.49
2019-06-08T19:34:07.615Z,15.48
2019-06-08T19:36:38.784Z,15.49
2019-06-08T19:39:08.031Z,15.46
2019-06-08T19:41:38.132Z,15.43
2019-06-08T19:44:07.540Z,15.40
2019-06-08T19:46:35.863Z,15.38
2019-06-08T19:49:04.200Z,15.35
2019-06-08T19:51:33.269Z,15.31
2019-06-08T19:54:01.740Z,15.31
2019-06-08T19:56:30.036Z,15.26
2019-06-08T19:59:04.025Z,15.22
2019-06-08T20:01:28.490Z,15.18
2019-06-08T20:04:00.402Z,15.12
2019-06-08T20:06:27.780Z,15.09
2019-06-08T20:08:57.477Z,15.04
2019-06-08T20:11:26.093Z,14.99
2019-06-08T20:13:54.527Z,14.94
2019-06-08T20:16:22.974Z,14.85
2019-06-08T20:18:52.879Z,14.80
2019-06-08T20:21:21.434Z,14.82
2019-06-08T20:23:50.919Z,14.79
2019-06-08T20:26:19.461Z,14.75
2019-06-08T20:28:51.242Z,14.70
2019-06-08T20:31:18.150Z,14.64
2019-06-08T20:33:50.255Z,14.60
2019-06-08T20:36:17.476Z,14.54
2019-06-08T20:38:47.182Z,14.51
2019-06-08T20:41:18.118Z,14.46
2019-06-08T20:43:49.122Z,14.42
2019-06-08T20:46:17.191Z,14.34
2019-06-08T20:48:48.874Z,14.31
2019-06-08T20:51:17.395Z,14.30
2019-06-08T20:53:49.056Z,14.26
2019-06-08T20:56:17.381Z,14.21
2019-06-08T20:58:48.030Z,14.20
2019-06-08T21:01:18.025Z,14.14
2019-06-08T21:03:48.169Z,14.11
2019-06-08T21:06:17.108Z,14.09
2019-06-08T21:08:46.620Z,14.07
2019-06-08T21:11:17.616Z,14.07
2019-06-08T21:13:49.347Z,14.06
2019-06-08T21:16:18.053Z,14.06
2019-06-08T21:18:46.816Z,14.03
2019-06-08T21:21:17.439Z,14.06
2019-06-08T21:23:48.900Z,14.05
2019-06-08T21:26:15.402Z,14.00
2019-06-08T21:28:43.765Z,13.97
2019-06-08T21:31:12.053Z,13.97
2019-06-08T21:33:40.365Z,13.95
2019-06-08T21:36:08.966Z,13.90
2019-06-08T21:38:37.775Z,13.88
2019-06-08T21:41:08.239Z,13.84
2019-06-08T21:43:37.407Z,13.79
2019-06-08T21:46:07.849Z,13.81
2019-06-08T21:48:38.196Z,13.79
2019-06-08T21:51:08.299Z,13.79
2019-06-08T21:53:38.150Z,13.77
2019-06-08T21:56:07.915Z,13.77
2019-06-08T21:58:37.796Z,13.74
2019-06-08T22:01:07.324Z,13.72
2019-06-08T22:03:37.925Z,13.73
2019-06-08T22:06:07.885Z,13.73
2019-06-08T22:08:37.544Z,13.73
2019-06-08T22:11:08.546Z,13.73
2019-06-08T22:13:37.409Z,13.74
2019-06-08T22:16:08.057Z,13.71
2019-06-08T22:18:37.967Z,13.70
2019-06-08T22:21:08.115Z,13.70
2019-06-08T22:23:35.964Z,13.73
2019-06-08T22:26:04.325Z,13.71
2019-06-08T22:28:33.317Z,13.69
2019-06-08T22:31:01.829Z,13.67
2019-06-08T22:33:30.175Z,13.65
2019-06-08T22:35:58.753Z,13.65
2019-06-08T22:38:27.171Z,13.62
2019-06-08T22:40:57.665Z,13.62
2019-06-08T22:43:26.388Z,13.57
2019-06-08T22:45:54.679Z,13.56
2019-06-08T22:48:22.960Z,13.58
2019-06-08T22:50:53.306Z,13.59
2019-06-08T22:53:21.328Z,13.56
2019-06-08T22:55:49.614Z,13.57
2019-06-08T22:58:19.036Z,13.58
2019-06-08T23:00:52.616Z,13.57
2019-06-08T23:03:18.582Z,13.58
2019-06-08T23:05:47.665Z,13.60
2019-06-08T23:08:17.577Z,13.62
2019-06-08T23:10:48.305Z,13.60
2019-06-08T23:13:17.990Z,13.58
2019-06-08T23:15:47.845Z,13.55
2019-06-08T23:18:18.152Z,13.54
2019-06-08T23:20:47.930Z,13.52
2019-06-08T23:23:17.932Z,13.48
2019-06-08T23:25:47.827Z,13.45
2019-06-08T23:28:18.127Z,13.43
2019-06-08T23:30:47.788Z,13.35
2019-06-08T23:33:18.917Z,13.34
2019-06-08T23:36:24.534Z,13.32
2019-06-08T23:38:17.270Z,13.25
2019-06-08T23:40:47.401Z,13.26
2019-06-08T23:43:17.936Z,13.24
2019-06-08T23:45:47.509Z,13.24
2019-06-08T23:48:17.355Z,13.21
2019-06-08T23:50:47.466Z,13.21
2019-06-08T23:53:18.160Z,13.19
2019-06-08T23:55:47.889Z,13.15
2019-06-08T23:58:17.604Z,13.15
